createdAt,value
2022-11-22T00:01:36.485Z,47.05
2022-11-22T00:06:38.431Z,52.83
2022-11-22T00:11:40.483Z,48.13
2022-11-22T00:16:42.551Z,47.95
2022-11-22T00:21:44.443Z,48.58
2022-11-22T00:26:46.311Z,46.20
2022-11-22T00:31:48.259Z,45.17
2022-11-22T00:36:50.189Z,45.67
2022-11-22T00:41:52.336Z,45.53
2022-11-22T00:46:54.290Z,46.53
2022-11-22T00:51:56.351Z,46.55
2022-11-22T00:56:58.304Z,46.65
2022-11-22T01:02:00.149Z,48.75
2022-11-22T01:07:02.801Z,46.72
2022-11-22T01:12:06.464Z,48.47
2022-11-22T01:17:08.421Z,46.65
2022-11-22T01:22:10.501Z,45.28
2022-11-22T01:27:12.415Z,45.72
2022-11-22T01:32:14.277Z,46.38
2022-11-22T01:37:16.167Z,48.65
2022-11-22T01:42:18.009Z,48.40
2022-11-22T01:47:25.440Z,47.13
2022-11-22T01:52:31.981Z,46.17
2022-11-22T01:57:36.703Z,45.50
2022-11-22T02:02:38.956Z,47.22
2022-11-22T02:07:44.581Z,45.00
2022-11-22T02:12:46.984Z,44.97
2022-11-22T02:17:48.883Z,44.05
2022-11-22T02:23:03.770Z,44.80
2022-11-22T02:28:05.924Z,44.33
2022-11-22T02:33:08.252Z,44.72
2022-11-22T02:38:22.528Z,44.30
2022-11-22T02:43:29.584Z,43.80
2022-11-22T02:48:31.500Z,42.08
2022-11-22T02:53:33.756Z,45.45
2022-11-22T02:58:35.788Z,42.78
2022-11-22T03:03:37.961Z,42.33
2022-11-22T03:08:39.908Z,44.50
2022-11-22T03:13:42.119Z,43.55
2022-11-22T03:18:44.556Z,44.92
2022-11-22T03:23:46.754Z,45.72
2022-11-22T03:28:48.757Z,45.40
2022-11-22T03:33:51.240Z,42.05
2022-11-22T03:38:53.289Z,46.03
2022-11-22T03:43:55.344Z,46.35
2022-11-22T03:48:57.301Z,58.38
2022-11-22T03:53:59.717Z,55.25
2022-11-22T03:59:03.555Z,45.92
2022-11-22T04:09:13.907Z,43.78
2022-11-22T04:14:40.787Z,47.20
2022-11-22T04:20:02.588Z,45.10
2022-11-22T04:25:14.182Z,48.45
2022-11-22T04:30:20.496Z,46.50
2022-11-22T04:35:23.021Z,45.08
2022-11-22T04:40:24.907Z,47.28
2022-11-22T04:45:26.889Z,46.47
2022-11-22T04:50:48.556Z,50.03
2022-11-22T04:55:50.998Z,46.47
2022-11-22T05:00:53.077Z,49.25
2022-11-22T05:05:55.044Z,50.03
2022-11-22T05:10:57.557Z,51.90
2022-11-22T05:16:00.690Z,53.75
2022-11-22T05:21:13.560Z,52.83
2022-11-22T05:26:15.471Z,51.88
2022-11-22T05:31:23.337Z,52.97
2022-11-22T05:36:25.782Z,57.83
2022-11-22T05:41:27.953Z,53.40
2022-11-22T05:46:30.599Z,53.72
2022-11-22T05:51:34.993Z,53.10
2022-11-22T05:56:37.413Z,62.13
2022-11-22T06:01:39.342Z,61.88
2022-11-22T06:06:41.288Z,62.05
2022-11-22T06:11:43.096Z,56.20
2022-11-22T06:16:45.125Z,61.22
2022-11-22T06:21:47.156Z,59.17
2022-11-22T06:26:49.124Z,59.55
2022-11-22T06:31:50.955Z,61.78
2022-11-22T06:36:52.832Z,62.70
2022-11-22T06:41:54.832Z,66.85
2022-11-22T06:46:56.778Z,63.40
2022-11-22T06:51:58.612Z,61.97
2022-11-22T06:57:00.726Z,56.15
2022-11-22T07:02:06.433Z,57.90
2022-11-22T07:07:08.931Z,61.08
2022-11-22T07:12:10.843Z,59.78
2022-11-22T07:17:12.891Z,61.17
2022-11-22T07:22:14.784Z,58.72
2022-11-22T07:27:16.779Z,67.05
2022-11-22T07:32:18.693Z,62.53
2022-11-22T07:37:20.828Z,62.08
2022-11-22T07:42:26.140Z,62.55
2022-11-22T07:47:28.928Z,64.82
2022-11-22T07:52:30.819Z,64.93
2022-11-22T07:57:33.389Z,69.32
2022-11-22T08:02:37.529Z,75.32
2022-11-22T08:07:39.789Z,75.75
2022-11-22T08:12:42.494Z,73.57
2022-11-22T08:17:44.625Z,69.97
2022-11-22T08:22:46.510Z,65.95
2022-11-22T08:27:48.439Z,68.18
2022-11-22T08:32:51.603Z,68.35
2022-11-22T08:37:57.542Z,66.53
2022-11-22T08:42:59.758Z,66.50
2022-11-22T08:48:01.865Z,71.43
2022-11-22T08:53:04.034Z,66.45
2022-11-22T08:58:06.111Z,66.53
2022-11-22T09:03:07.973Z,70.80
2022-11-22T09:08:25.226Z,62.10
2022-11-22T09:13:28.113Z,65.00
2022-11-22T09:18:30.161Z,62.03
2022-11-22T09:23:32.804Z,67.07
2022-11-22T09:28:35.828Z,61.22
2022-11-22T09:33:39.444Z,60.80
2022-11-22T09:38:41.959Z,58.78
2022-11-22T09:43:57.812Z,57.47
2022-11-22T09:49:02.977Z,58.25
2022-11-22T09:54:07.134Z,55.83
2022-11-22T09:59:35.510Z,57.42
2022-11-22T10:04:40.351Z,58.65
2022-11-22T10:10:06.457Z,56.85
2022-11-22T10:15:42.914Z,58.67
2022-11-22T10:20:48.823Z,55.20
2022-11-22T10:26:12.612Z,52.55
2022-11-22T10:31:23.654Z,54.55
2022-11-22T10:36:44.197Z,55.10
2022-11-22T10:42:04.646Z,54.10
2022-11-22T10:47:18.772Z,52.85
2022-11-22T10:52:27.011Z,51.20
2022-11-22T10:57:38.207Z,49.58
2022-11-22T11:03:15.812Z,53.58
2022-11-22T11:14:37.702Z,58.45
2022-11-22T11:19:44.294Z,63.15
2022-11-22T11:24:46.231Z,51.28
2022-11-22T11:29:54.906Z,57.50
2022-11-22T11:35:07.932Z,44.40
2022-11-22T11:40:31.377Z,35.37
2022-11-22T11:45:33.290Z,34.38
2022-11-22T11:50:35.267Z,35.22
2022-11-22T11:55:37.529Z,40.63
2022-11-22T12:00:40.416Z,34.47
2022-11-22T12:05:42.771Z,31.80
2022-11-22T12:10:56.285Z,35.13
2022-11-22T12:16:14.119Z,38.10
2022-11-22T12:22:09.407Z,37.58
2022-11-22T12:27:12.752Z,36.33
2022-11-22T12:37:31.473Z,32.63
2022-11-22T12:42:44.361Z,37.80
2022-11-22T12:47:47.608Z,38.33
2022-11-22T12:52:59.163Z,41.05
2022-11-22T12:58:21.833Z,41.17
2022-11-22T13:03:32.385Z,44.72
2022-11-22T13:08:37.464Z,46.30
2022-11-22T13:13:43.931Z,47.67
2022-11-22T13:18:51.688Z,51.58
2022-11-22T13:24:09.632Z,50.10
2022-11-22T13:29:41.732Z,47.47
2022-11-22T13:35:18.055Z,48.50
2022-11-22T13:40:31.305Z,44.97
2022-11-22T13:45:49.755Z,43.15
2022-11-22T13:50:51.615Z,42.47
2022-11-22T13:55:53.745Z,44.63
2022-11-22T14:00:57.300Z,41.92
2022-11-22T14:11:27.535Z,42.35
2022-11-22T14:16:43.191Z,43.92
2022-11-22T14:22:03.355Z,42.88
2022-11-22T14:27:20.430Z,42.45
2022-11-22T14:32:26.526Z,47.70
2022-11-22T14:37:31.888Z,48.60
2022-11-22T14:42:57.158Z,51.70
2022-11-22T14:48:13.316Z,51.65
2022-11-22T14:53:21.348Z,79.53
2022-11-22T14:58:28.489Z,43.17
2022-11-22T15:09:16.118Z,45.67
2022-11-22T15:09:53.322Z,47.10
2022-11-22T15:58:56.966Z,45.40
2022-11-22T16:03:59.488Z,46.83
2022-11-22T16:09:06.249Z,49.42
2022-11-22T16:14:36.388Z,52.70
2022-11-22T16:19:38.455Z,49.38
2022-11-22T16:24:40.387Z,48.90
2022-11-22T16:29:57.499Z,51.13
2022-11-22T16:35:27.643Z,45.08
2022-11-22T16:40:22.947Z,44.35
2022-11-22T16:45:25.025Z,42.45
2022-11-22T16:50:27.120Z,43.63
2022-11-22T16:55:29.163Z,45.20
2022-11-22T17:00:32.469Z,45.40
2022-11-22T17:05:34.377Z,48.40
2022-11-22T17:10:45.459Z,54.03
2022-11-22T17:15:48.207Z,46.13
2022-11-22T17:20:50.410Z,61.90
2022-11-22T17:25:52.347Z,48.78
2022-11-22T17:30:58.573Z,47.97
2022-11-22T17:36:00.472Z,48.28
2022-11-22T17:41:02.432Z,58.85
2022-11-22T17:46:04.399Z,55.97
2022-11-22T17:51:11.610Z,49.70
2022-11-22T17:56:13.844Z,52.95
2022-11-22T18:01:21.139Z,70.78
2022-11-22T18:06:23.298Z,53.35
2022-11-22T18:11:25.176Z,56.65
2022-11-22T18:16:28.900Z,53.35
2022-11-22T18:21:32.556Z,52.35
2022-11-22T18:26:40.006Z,56.22
2022-11-22T18:31:51.742Z,57.35
2022-11-22T18:37:00.431Z,74.47
2022-11-22T18:42:16.512Z,68.40
2022-11-22T18:47:18.600Z,59.45
2022-11-22T18:52:22.991Z,56.00
2022-11-22T18:57:25.116Z,61.22
2022-11-22T19:02:27.746Z,68.97
2022-11-22T19:07:29.802Z,60.45
2022-11-22T19:12:32.370Z,53.42
2022-11-22T19:17:34.408Z,57.53
2022-11-22T19:22:36.557Z,66.57
2022-11-22T19:27:38.439Z,61.90
2022-11-22T19:32:40.745Z,62.50
2022-11-22T19:37:43.260Z,58.92
2022-11-22T19:42:45.095Z,71.47
2022-11-22T19:47:53.260Z,60.80
2022-11-22T19:52:55.699Z,63.58
2022-11-22T19:57:57.791Z,65.82
2022-11-22T20:02:59.643Z,56.15
2022-11-22T20:08:01.524Z,52.92
2022-11-22T20:13:07.932Z,59.72
2022-11-22T20:18:12.334Z,57.90
2022-11-22T20:23:14.432Z,61.42
2022-11-22T20:28:16.377Z,56.58
2022-11-22T20:33:18.279Z,52.90
2022-11-22T20:38:21.292Z,53.72
2022-11-22T20:43:23.487Z,55.10
2022-11-22T20:48:25.592Z,53.95
2022-11-22T20:53:29.040Z,53.20
2022-11-22T20:58:31.931Z,54.85
2022-11-22T21:03:34.696Z,53.73
2022-11-22T21:08:36.711Z,55.23
2022-11-22T21:13:38.694Z,54.95
2022-11-22T21:18:40.691Z,57.53
2022-11-22T21:23:43.707Z,61.15
2022-11-22T21:28:45.725Z,61.67
2022-11-22T21:33:48.081Z,56.05
2022-11-22T21:38:50.266Z,60.92
2022-11-22T21:43:54.978Z,56.75
2022-11-22T21:48:56.977Z,59.03
2022-11-22T21:54:00.228Z,56.90
2022-11-22T21:59:02.259Z,54.60
2022-11-22T22:04:04.792Z,59.47
2022-11-22T22:09:06.724Z,64.60
2022-11-22T22:14:08.768Z,61.67
2022-11-22T22:19:11.491Z,60.78
2022-11-22T22:24:13.782Z,60.17
2022-11-22T22:29:15.648Z,62.40
2022-11-22T22:34:18.274Z,59.90
2022-11-22T22:39:20.224Z,60.58
2022-11-22T22:44:22.050Z,62.78
2022-11-22T22:49:23.929Z,64.15
2022-11-22T22:54:25.955Z,62.60
2022-11-22T22:59:27.948Z,62.42
2022-11-22T23:04:30.074Z,60.78
2022-11-22T23:09:32.433Z,58.05
2022-11-22T23:14:34.575Z,61.80
2022-11-22T23:19:37.017Z,55.55
2022-11-22T23:24:39.163Z,60.63
2022-11-22T23:29:41.034Z,60.45
2022-11-22T23:34:43.030Z,55.90
2022-11-22T23:39:44.935Z,55.88
2022-11-22T23:44:47.042Z,56.42
2022-11-22T23:49:48.900Z,54.03
2022-11-22T23:54:50.763Z,56.30
2022-11-22T23:59:52.664Z,51.03
